Cheneyville, Louisiana
Current Conditions -  °F | °C
As of 8:53 AM on Friday 31 Oct 2014 (Local Time) from KESF Reporting Station
Clear Clear  
Wind Chill: 59°   Ceiling: Unl
Heat Index: 59°   Visibility: 10mi
Dew Point: 46°   Wind: 7mph
Humidity: 62%   Direction: NA
Pressure: 30.12"   Gusts: NA
Location:  31.01°N, 92.29°W
Report Text: KESF 311353Z AUTO VRB06KT 10SM CLR 15/08 A3012 RMK AO2 SLP198 T01500078
Loading
Personal Weather Stations






























Interactive Weather Map
Tropical Storm Tracking
New forecast layout! Learn more

10-Day Weather Forecast

Advertisements
Track Severe Weather on mobile